Time;durP1;ratioP1;P1;durP2;ratioP2;P2;SDS_P1;SDS_P2;PMS_P1;PMS_P2;Temp;Humidity;BMP_temperature;BMP_pressure;BME280_temperature;BME280_humidity;BME280_pressure;Samples;Min_cycle;Max_cycle;Signal;HPM_P1;HPM_P2
2020/12/21 00:00:22;;;;;;;3.33;1.73;;;14.50;99.90;;;;;;4328995;27;20456;-84
2020/12/21 00:02:50;;;;;;;12.15;2.67;;;14.40;99.90;;;;;;4323896;27;20155;-84
2020/12/21 00:05:18;;;;;;;7.60;1.70;;;14.40;99.90;;;;;;4336230;27;20113;-84
2020/12/21 00:07:46;;;;;;;7.72;1.90;;;14.60;99.90;;;;;;4318705;33;20425;-84
2020/12/21 00:10:14;;;;;;;6.80;4.50;;;14.70;99.90;;;;;;4335614;33;20093;-84
2020/12/21 00:12:43;;;;;;;9.70;5.30;;;14.80;99.90;;;;;;4369138;27;20058;-84
2020/12/21 00:15:11;;;;;;;14.70;5.43;;;14.90;99.90;;;;;;4326070;33;20056;-84
2020/12/21 00:17:39;;;;;;;8.75;4.15;;;14.90;99.90;;;;;;4338406;27;20104;-84
2020/12/21 00:20:07;;;;;;;7.93;4.30;;;14.90;99.90;;;;;;4335820;33;20120;-84
2020/12/21 00:22:35;;;;;;;7.60;4.12;;;14.90;99.90;;;;;;4340389;33;20060;-84
2020/12/21 00:25:03;;;;;;;13.35;4.10;;;14.90;99.90;;;;;;4354307;27;20471;-84
2020/12/21 00:27:31;;;;;;;4.68;4.05;;;14.80;99.90;;;;;;4339722;32;20143;-84
2020/12/21 00:29:59;;;;;;;8.63;4.00;;;14.80;99.90;;;;;;4341178;33;20060;-84
2020/12/21 00:32:27;;;;;;;6.82;3.97;;;14.80;99.90;;;;;;4345535;27;20248;-84
2020/12/21 00:34:56;;;;;;;11.05;4.53;;;14.80;99.90;;;;;;4327169;33;20459;-84
2020/12/21 00:37:25;;;;;;;8.98;4.35;;;14.70;99.90;;;;;;4336124;27;20059;-82
2020/12/21 00:39:53;;;;;;;5.87;3.47;;;14.70;99.90;;;;;;4376634;27;20290;-85
2020/12/21 00:42:55;;;;;;;;;;;;;;;;;;;;;
2020/12/21 00:46:19;;;;;;;;;;;;;;;;;;;;;
2020/12/21 00:54:26;;;;;;;5.00;4.43;;;14.70;99.90;;;;;;4330087;33;20118;-95
2020/12/21 00:58:07;;;;;;;7.18;4.32;;;14.50;99.90;;;;;;4337486;33;20004;-96
2020/12/21 01:01:40;;;;;;;6.93;4.07;;;14.80;99.90;;;;;;4342560;33;20056;-96
2020/12/21 01:05:36;;;;;;;4.53;4.12;;;14.80;99.90;;;;;;4317029;33;20094;-95
2020/12/21 01:09:59;;;;;;;;;;;;;;;;;;;;;
2020/12/21 01:21:57;;;;;;;10.05;5.07;;;14.60;99.90;;;;;;4282300;33;20049;-96
2020/12/21 01:25:35;;;;;;;8.07;4.53;;;14.40;99.90;;;;;;4221454;33;20456;-96
2020/12/21 01:28:50;;;;;;;4.20;3.80;;;13.90;99.90;;;;;;4191093;34;20067;-95
2020/12/21 01:32:04;;;;;;;8.45;4.40;;;14.30;99.90;;;;;;4200847;33;20050;-96
2020/12/21 01:34:42;;;;;;;;;;;14.50;99.90;;;;;;4260023;33;20057;-96
2020/12/21 01:37:17;;;;;;;7.47;5.68;;;14.10;99.90;;;;;;4279376;33;20387;-95
2020/12/21 01:40:07;;;;;;;11.85;6.15;;;14.10;99.90;;;;;;4281722;33;20058;-96
2020/12/21 01:43:03;;;;;;;8.48;5.95;;;13.70;99.90;;;;;;4258650;33;20038;-95
2020/12/21 01:49:30;;;;;;;6.68;2.10;;;14.00;99.90;;;;;;4280370;33;20061;-96
2020/12/21 02:01:10;;;;;;;4.93;1.60;;;14.10;99.90;;;;;;4270136;33;20074;-96
2020/12/21 02:04:49;;;;;;;2.87;0.95;;;14.00;99.90;;;;;;4268855;33;20058;-96
2020/12/21 02:07:59;;;;;;;9.27;4.75;;;14.50;99.90;;;;;;4330644;33;20602;-95
2020/12/21 02:12:02;;;;;;;5.37;3.35;;;13.80;99.90;;;;;;4337072;33;20071;-96
2020/12/21 02:15:34;;;;;;;3.70;1.17;;;14.10;99.90;;;;;;4277626;33;20042;-96
2020/12/21 02:18:59;;;;;;;4.75;4.45;;;14.00;99.90;;;;;;4260934;33;20125;-96
2020/12/21 02:29:44;;;;;;;;;;;;;;;;;;;;;
2020/12/21 02:53:26;;;;;;;;;;;;;;;;;;;;;
2020/12/21 02:57:52;;;;;;;5.82;1.95;;;14.60;99.90;;;;;;4242036;33;20038;-96
2020/12/21 03:01:50;;;;;;;;;;;;;;;;;;;;;
2020/12/21 03:18:42;;;;;;;4.37;4.00;;;14.40;99.90;;;;;;4248949;33;20509;-84
2020/12/21 03:21:10;;;;;;;5.60;4.40;;;14.00;99.90;;;;;;4280372;27;20494;-85
2020/12/21 03:23:38;;;;;;;6.40;3.55;;;14.00;99.90;;;;;;4331274;27;20112;-84
2020/12/21 03:26:07;;;;;;;4.70;4.20;;;14.00;99.90;;;;;;4318661;33;20098;-83
2020/12/21 03:28:35;;;;;;;5.78;4.75;;;13.90;99.90;;;;;;4319051;33;20146;-83
2020/12/21 03:31:03;;;;;;;8.02;3.92;;;13.90;99.90;;;;;;4303384;33;20082;-84
2020/12/21 03:33:31;;;;;;;5.22;4.12;;;13.80;99.90;;;;;;4339030;27;20155;-83
2020/12/21 03:35:59;;;;;;;8.05;4.12;;;13.80;99.90;;;;;;4306379;33;20068;-83
2020/12/21 03:38:27;;;;;;;4.90;4.50;;;13.70;99.90;;;;;;4336603;27;20061;-83
2020/12/21 03:40:55;;;;;;;5.30;4.62;;;13.60;99.90;;;;;;4319264;33;20407;-83
2020/12/21 03:43:23;;;;;;;8.80;5.45;;;13.70;99.90;;;;;;4319793;33;20060;-83
2020/12/21 03:45:50;;;;;;;4.57;2.20;;;13.60;99.90;;;;;;4334995;27;20056;-84
2020/12/21 03:48:18;;;;;;;5.70;3.78;;;13.40;99.90;;;;;;4338062;33;20121;-83
2020/12/21 03:50:47;;;;;;;11.00;4.80;;;13.40;99.90;;;;;;4348073;27;20147;-84
2020/12/21 03:53:14;;;;;;;8.48;5.00;;;13.50;99.90;;;;;;4296337;33;20126;-84
2020/12/21 03:55:42;;;;;;;20.58;6.20;;;13.40;99.90;;;;;;4312190;33;20092;-83
2020/12/21 03:58:11;;;;;;;5.15;3.80;;;13.40;99.90;;;;;;4339010;27;20056;-83
2020/12/21 04:00:38;;;;;;;7.30;5.15;;;13.50;99.90;;;;;;4321028;33;20071;-83
2020/12/21 04:03:07;;;;;;;11.82;5.28;;;13.40;99.90;;;;;;4323156;33;20078;-83
2020/12/21 04:05:44;;;;;;;6.75;5.18;;;13.50;99.90;;;;;;4339880;27;20087;-84
2020/12/21 04:08:12;;;;;;;4.97;1.48;;;13.40;99.90;;;;;;4323197;33;20606;-85
2020/12/21 04:10:43;;;;;;;9.05;1.87;;;13.30;99.90;;;;;;4348367;27;20067;-84
2020/12/21 04:13:11;;;;;;;4.35;1.75;;;13.40;99.90;;;;;;4338751;32;20068;-83
2020/12/21 04:15:40;;;;;;;10.10;1.85;;;13.60;99.90;;;;;;4370381;27;20088;-84
2020/12/21 04:18:08;;;;;;;6.95;1.73;;;13.60;99.90;;;;;;4342696;27;20092;-84
2020/12/21 04:20:36;;;;;;;7.18;1.92;;;13.60;99.90;;;;;;4310660;33;20071;-84
2020/12/21 04:23:04;;;;;;;4.90;1.27;;;13.60;99.90;;;;;;4341882;27;20155;-85
2020/12/21 04:25:31;;;;;;;3.58;1.40;;;13.60;99.90;;;;;;4330269;33;20060;-84
2020/12/21 04:27:59;;;;;;;8.38;5.70;;;13.60;99.90;;;;;;4311569;33;20134;-83
2020/12/21 04:30:28;;;;;;;13.95;5.35;;;13.70;99.90;;;;;;4351863;27;20150;-83
2020/12/21 04:32:55;;;;;;;10.55;5.28;;;13.80;99.90;;;;;;4310022;33;20417;-83
2020/12/21 04:35:23;;;;;;;11.82;4.93;;;13.80;99.90;;;;;;4321445;33;20079;-83
2020/12/21 04:37:51;;;;;;;6.87;4.30;;;13.90;99.90;;;;;;4337397;27;20071;-84
2020/12/21 04:40:19;;;;;;;10.98;4.70;;;13.90;99.90;;;;;;4296628;33;20533;-84
2020/12/21 04:42:50;;;;;;;9.13;5.28;;;13.90;99.90;;;;;;4327661;27;20131;-83
2020/12/21 04:45:18;;;;;;;7.80;4.87;;;13.80;99.90;;;;;;4337791;33;20396;-84
2020/12/21 04:47:47;;;;;;;7.35;4.55;;;13.60;99.90;;;;;;4333667;27;20076;-84
2020/12/21 04:50:17;;;;;;;4.80;1.33;;;13.40;99.90;;;;;;4346647;27;20048;-83
2020/12/21 04:52:48;;;;;;;11.85;1.58;;;13.50;99.90;;;;;;4332767;33;20068;-84
2020/12/21 04:55:23;;;;;;;1.37;1.27;;;13.80;99.90;;;;;;4336734;27;20629;-84
2020/12/21 04:57:59;;;;;;;4.65;1.42;;;13.70;99.90;;;;;;4326905;33;20204;-83
2020/12/21 05:00:29;;;;;;;8.70;1.52;;;13.60;99.90;;;;;;4316800;33;20064;-84
2020/12/21 05:02:58;;;;;;;13.13;5.75;;;13.30;99.90;;;;;;4330070;27;20424;-84
2020/12/21 05:05:34;;;;;;;11.20;2.42;;;13.20;99.90;;;;;;4312657;33;20424;-85
2020/12/21 05:08:24;;;;;;;4.07;1.65;;;13.30;99.90;;;;;;4321914;27;20247;-84
2020/12/21 05:10:59;;;;;;;21.15;2.17;;;13.40;99.90;;;;;;4306348;33;20362;-84
2020/12/21 05:13:28;;;;;;;4.53;1.08;;;13.50;99.90;;;;;;4323272;33;20119;-83
2020/12/21 05:15:57;;;;;;;3.40;1.05;;;13.60;99.90;;;;;;4337983;27;21923;-85
2020/12/21 05:18:34;;;;;;;3.28;1.15;;;13.70;99.90;;;;;;4317674;33;20092;-83
2020/12/21 05:21:05;;;;;;;4.95;2.53;;;13.90;99.90;;;;;;4338335;27;20158;-84
2020/12/21 05:23:36;;;;;;;5.57;2.58;;;13.80;99.90;;;;;;4327456;27;20184;-84
2020/12/21 05:26:10;;;;;;;3.78;1.25;;;13.80;99.90;;;;;;4331320;33;20072;-86
2020/12/21 05:28:40;;;;;;;6.70;1.52;;;13.80;99.90;;;;;;4304212;33;20145;-85
2020/12/21 05:31:10;;;;;;;7.05;4.43;;;13.80;99.90;;;;;;4328222;27;20060;-84
2020/12/21 05:33:43;;;;;;;4.05;3.60;;;14.00;99.90;;;;;;4327746;33;20071;-83
2020/12/21 05:36:16;;;;;;;7.80;4.72;;;13.90;99.90;;;;;;4333362;27;20419;-84
2020/12/21 05:38:58;;;;;;;8.90;3.50;;;13.80;99.90;;;;;;4330992;33;20063;-85
2020/12/21 05:41:26;;;;;;;4.25;3.62;;;13.60;99.90;;;;;;4340011;27;20174;-84
2020/12/21 05:43:56;;;;;;;12.85;1.60;;;13.40;99.90;;;;;;4336072;27;20045;-84
2020/12/21 05:46:29;;;;;;;9.65;4.32;;;13.30;99.90;;;;;;4317658;33;20158;-86
2020/12/21 05:48:59;;;;;;;9.20;2.90;;;13.30;99.90;;;;;;4342786;27;20044;-84
2020/12/21 05:51:26;;;;;;;6.37;3.20;;;13.30;99.90;;;;;;4312303;33;20444;-83
2020/12/21 05:53:56;;;;;;;11.55;3.72;;;13.40;99.90;;;;;;4311926;33;20570;-84
2020/12/21 05:56:46;;;;;;;5.35;2.22;;;13.50;99.90;;;;;;4322869;33;20246;-84
2020/12/21 05:59:17;;;;;;;2.45;2.25;;;13.50;99.90;;;;;;4319647;33;20154;-85
2020/12/21 06:01:58;;;;;;;8.77;3.12;;;13.60;99.90;;;;;;4338793;27;20156;-84
2020/12/21 06:04:38;;;;;;;2.40;1.17;;;13.60;99.90;;;;;;4312453;33;20184;-84
2020/12/21 06:07:09;;;;;;;6.03;3.75;;;13.60;99.90;;;;;;4308667;33;20270;-85
2020/12/21 06:09:45;;;;;;;4.22;3.67;;;13.50;99.90;;;;;;4308652;27;20079;-84
2020/12/21 06:12:13;;;;;;;4.05;3.75;;;13.50;99.90;;;;;;4311781;33;20104;-85
2020/12/21 06:14:44;;;;;;;4.00;3.70;;;13.60;99.90;;;;;;4328944;27;20075;-84
2020/12/21 06:17:16;;;;;;;5.00;4.80;;;13.60;99.90;;;;;;4313846;33;20482;-85
2020/12/21 06:19:44;;;;;;;6.37;1.55;;;13.70;99.90;;;;;;4299296;33;20143;-83
2020/12/21 06:22:24;;;;;;;7.18;5.68;;;13.70;99.90;;;;;;4335180;27;20079;-84
2020/12/21 06:24:52;;;;;;;2.08;1.60;;;13.70;99.90;;;;;;4330727;27;20380;-85
2020/12/21 06:27:35;;;;;;;6.78;3.60;;;13.90;99.90;;;;;;4331094;33;20470;-83
2020/12/21 06:30:05;;;;;;;6.60;2.97;;;13.80;99.90;;;;;;4348542;27;20115;-84
2020/12/21 06:32:34;;;;;;;4.45;3.65;;;13.80;99.90;;;;;;4305550;33;20124;-84
2020/12/21 06:35:16;;;;;;;11.57;4.82;;;13.90;99.90;;;;;;4297182;33;20135;-85
2020/12/21 06:38:01;;;;;;;5.70;2.80;;;13.90;99.90;;;;;;4314608;27;20138;-84
2020/12/21 06:40:33;;;;;;;;;;;13.90;99.90;;;;;;4318849;33;20395;-85
2020/12/21 06:43:13;;;;;;;1.90;1.80;;;13.80;99.90;;;;;;4322018;27;20459;-84
2020/12/21 06:45:43;;;;;;;5.93;2.90;;;13.60;99.90;;;;;;4336880;27;20476;-84
2020/12/21 06:48:22;;;;;;;11.50;8.65;;;13.70;99.90;;;;;;4311872;33;20053;-83
2020/12/21 06:50:49;;;;;;;7.68;3.08;;;13.70;99.90;;;;;;4314444;33;20083;-84
2020/12/21 06:53:18;;;;;;;3.85;2.00;;;13.70;99.90;;;;;;4344593;27;20139;-83
2020/12/21 06:55:45;;;;;;;9.82;3.62;;;13.90;99.90;;;;;;4322943;33;20075;-83
2020/12/21 06:58:13;;;;;;;6.25;4.50;;;14.00;99.90;;;;;;4297427;33;20417;-85
2020/12/21 07:00:43;;;;;;;3.35;1.23;;;14.10;99.90;;;;;;4308700;28;20126;-85
2020/12/21 07:03:10;;;;;;;7.85;2.60;;;14.10;99.90;;;;;;4321946;33;20073;-84
2020/12/21 07:05:39;;;;;;;7.57;4.60;;;14.20;99.90;;;;;;4326278;27;20103;-84
2020/12/21 07:08:08;;;;;;;5.87;3.20;;;14.10;99.90;;;;;;4295698;33;20077;-84
2020/12/21 07:10:40;;;;;;;3.97;3.67;;;14.10;99.90;;;;;;4294513;33;20056;-84
2020/12/21 07:13:12;;;;;;;4.80;3.55;;;13.90;99.90;;;;;;4345362;27;20072;-84
2020/12/21 07:15:39;;;;;;;7.85;4.75;;;14.00;99.90;;;;;;4324151;33;20146;-84
2020/12/21 07:18:10;;;;;;;1.37;1.10;;;14.10;99.90;;;;;;4326573;33;20155;-84
2020/12/21 07:20:40;;;;;;;4.55;2.78;;;14.20;99.90;;;;;;4337742;27;20088;-84
2020/12/21 07:23:08;;;;;;;10.35;2.62;;;14.30;99.90;;;;;;4345109;27;20119;-84
2020/12/21 07:25:36;;;;;;;9.07;1.52;;;14.30;99.90;;;;;;4327034;33;20452;-84
2020/12/21 07:28:04;;;;;;;7.43;1.70;;;14.30;99.90;;;;;;4329337;33;20072;-84
2020/12/21 07:30:32;;;;;;;4.93;1.60;;;14.30;99.90;;;;;;4338025;27;20501;-84
2020/12/21 07:33:05;;;;;;;5.93;4.00;;;14.30;99.90;;;;;;4321410;33;20432;-83
2020/12/21 07:35:33;;;;;;;6.43;1.35;;;14.30;99.90;;;;;;4349318;27;20153;-85
2020/12/21 07:38:14;;;;;;;8.18;1.55;;;14.20;99.90;;;;;;4315954;33;20060;-84
2020/12/21 07:40:44;;;;;;;9.65;1.60;;;14.20;99.90;;;;;;4335507;27;20140;-84
2020/12/21 07:43:17;;;;;;;5.25;1.12;;;14.10;99.90;;;;;;4335949;27;20127;-84
2020/12/21 07:45:49;;;;;;;3.47;1.10;;;14.20;99.90;;;;;;4315415;33;20131;-84
2020/12/21 07:48:17;;;;;;;3.22;1.02;;;14.20;99.90;;;;;;4340614;27;20056;-84
2020/12/21 07:50:47;;;;;;;9.85;5.40;;;14.20;99.90;;;;;;4332928;27;20639;-84
2020/12/21 07:53:15;;;;;;;7.35;5.10;;;14.20;99.90;;;;;;4315743;33;20071;-84
2020/12/21 07:55:55;;;;;;;9.70;1.27;;;14.20;99.90;;;;;;4323469;27;20508;-85
2020/12/21 07:58:24;;;;;;;10.02;2.20;;;14.30;99.90;;;;;;4307026;33;20067;-84
2020/12/21 08:00:54;;;;;;;5.05;4.43;;;14.40;99.90;;;;;;4333639;27;20108;-85
2020/12/21 08:03:24;;;;;;;6.00;4.10;;;14.40;99.90;;;;;;4332303;27;20044;-84
2020/12/21 08:06:10;;;;;;;14.32;4.57;;;14.50;99.90;;;;;;4297216;33;20107;-84
2020/12/21 08:08:40;;;;;;;7.70;4.00;;;14.60;99.90;;;;;;4323097;27;20165;-85
2020/12/21 08:11:15;;;;;;;9.05;4.25;;;14.70;99.90;;;;;;4312705;33;20056;-85
2020/12/21 08:13:51;;;;;;;6.07;3.72;;;14.70;99.90;;;;;;4339149;27;20057;-85
2020/12/21 08:16:25;;;;;;;3.62;3.40;;;14.80;99.90;;;;;;4294087;33;20056;-84
2020/12/21 08:18:53;;;;;;;;;;;14.80;99.90;;;;;;4283262;33;20481;-84
2020/12/21 08:21:25;;;;;;;7.25;5.32;;;15.00;99.90;;;;;;4331828;27;20019;-85
2020/12/21 08:23:58;;;;;;;12.73;4.72;;;15.10;99.90;;;;;;4322531;33;21017;-85
2020/12/21 08:26:26;;;;;;;3.47;0.95;;;15.10;99.90;;;;;;4326159;33;20052;-84
2020/12/21 08:28:55;;;;;;;11.63;5.00;;;15.20;99.90;;;;;;4339243;27;20037;-85
2020/12/21 08:31:24;;;;;;;7.87;4.32;;;15.30;99.90;;;;;;4314677;33;20241;-85
2020/12/21 08:34:00;;;;;;;5.15;3.42;;;15.40;99.90;;;;;;4319217;33;20072;-84
2020/12/21 08:36:34;;;;;;;10.77;9.77;;;15.50;99.90;;;;;;4352516;27;20130;-84
2020/12/21 08:39:18;;;;;;;4.75;4.35;;;15.50;99.90;;;;;;4335786;32;20156;-85
2020/12/21 08:41:51;;;;;;;3.72;1.17;;;15.60;99.90;;;;;;4350348;27;20440;-85
2020/12/21 08:44:22;;;;;;;6.07;3.87;;;15.70;99.90;;;;;;4316701;33;20384;-84
2020/12/21 08:46:53;;;;;;;7.22;4.18;;;15.90;99.90;;;;;;4331570;27;20343;-86
2020/12/21 08:49:22;;;;;;;13.62;12.52;;;16.00;99.90;;;;;;4340616;27;20173;-84
2020/12/21 08:51:51;;;;;;;9.15;8.50;;;16.00;99.90;;;;;;4330665;33;20163;-84
2020/12/21 08:54:19;;;;;;;6.32;5.82;;;16.10;99.90;;;;;;4344902;27;20036;-85
2020/12/21 08:56:48;;;;;;;6.40;5.80;;;16.20;99.90;;;;;;4313198;33;20056;-85
2020/12/21 08:59:16;;;;;;;2.40;1.75;;;16.30;99.90;;;;;;4320859;33;20082;-84
2020/12/21 09:01:45;;;;;;;1.33;1.10;;;16.40;99.90;;;;;;4334970;27;20057;-84
2020/12/21 09:04:13;;;;;;;4.35;1.52;;;16.40;99.90;;;;;;4317850;33;20145;-84
2020/12/21 09:06:41;;;;;;;3.60;1.08;;;16.60;99.90;;;;;;4317496;33;20103;-84
2020/12/21 09:09:10;;;;;;;17.08;15.55;;;16.80;99.90;;;;;;4324768;27;20059;-84
2020/12/21 09:11:38;;;;;;;11.63;10.90;;;17.10;99.90;;;;;;4302101;33;20064;-84
2020/12/21 09:14:06;;;;;;;5.37;4.90;;;17.20;99.90;;;;;;4324589;27;20102;-84
2020/12/21 09:16:34;;;;;;;9.80;8.90;;;17.30;99.90;;;;;;4335839;33;20479;-84
2020/12/21 09:19:02;;;;;;;8.48;7.78;;;17.30;99.90;;;;;;4309638;33;20186;-84
2020/12/21 09:21:31;;;;;;;7.57;7.07;;;17.40;99.90;;;;;;4362166;27;20166;-84
2020/12/21 09:24:00;;;;;;;2.97;1.50;;;17.50;99.90;;;;;;4345519;32;20563;-83
2020/12/21 09:26:30;;;;;;;8.07;6.25;;;17.60;99.90;;;;;;4345723;32;20395;-84
2020/12/21 09:28:57;;;;;;;2.30;1.80;;;17.70;99.90;;;;;;4361776;27;20070;-85
2020/12/21 09:31:25;;;;;;;3.75;1.90;;;17.80;99.90;;;;;;4321576;33;20068;-85
2020/12/21 09:33:54;;;;;;;6.20;5.68;;;18.00;99.90;;;;;;4323788;27;21261;-85
2020/12/21 09:36:22;;;;;;;10.32;9.57;;;18.20;99.90;;;;;;4330210;33;20056;-84
2020/12/21 09:39:10;;;;;;;9.60;7.53;;;18.30;99.90;;;;;;4301849;33;20076;-85
2020/12/21 09:41:38;;;;;;;7.62;4.55;;;18.40;99.90;;;;;;4339336;27;20553;-84
2020/12/21 09:44:06;;;;;;;7.55;3.97;;;18.50;99.90;;;;;;4324839;33;20445;-85
2020/12/21 09:46:35;;;;;;;4.45;3.62;;;18.60;99.90;;;;;;4363694;27;20055;-84
2020/12/21 09:49:03;;;;;;;5.32;3.10;;;18.90;99.90;;;;;;4334082;33;20107;-85
2020/12/21 09:51:31;;;;;;;4.87;2.40;;;18.90;99.90;;;;;;4331507;33;20078;-84
2020/12/21 09:54:00;;;;;;;5.20;4.90;;;18.90;99.90;;;;;;4337386;27;20474;-84
2020/12/21 09:56:28;;;;;;;9.60;8.90;;;19.00;99.90;;;;;;4311638;33;20064;-85
2020/12/21 09:58:56;;;;;;;9.93;9.43;;;19.30;99.90;;;;;;4323037;27;20099;-86
2020/12/21 10:01:29;;;;;;;4.05;1.52;;;21.10;99.90;;;;;;4302263;33;20167;-84
2020/12/21 10:04:00;;;;;;;7.20;6.05;;;20.90;99.90;;;;;;4304931;33;20169;-85
2020/12/21 10:06:29;;;;;;;18.70;17.70;;;20.90;99.90;;;;;;4318096;27;20078;-85
2020/12/21 10:08:57;;;;;;;11.05;10.20;;;20.80;99.90;;;;;;4287210;33;20120;-86
2020/12/21 10:11:25;;;;;;;15.90;14.90;;;20.50;99.90;;;;;;4285884;33;20065;-85
2020/12/21 10:13:54;;;;;;;7.32;3.25;;;20.70;99.90;;;;;;4327393;27;20685;-85
2020/12/21 10:16:22;;;;;;;9.00;8.23;;;20.50;99.90;;;;;;4322163;33;20154;-85
2020/12/21 10:19:12;;;;;;;3.15;1.20;;;20.70;99.90;;;;;;4334412;27;20370;31
2020/12/21 10:21:40;;;;;;;10.30;9.60;;;20.70;99.90;;;;;;4312557;33;20149;-85
2020/12/21 10:24:08;;;;;;;3.87;3.58;;;20.80;99.90;;;;;;4317175;33;20643;-83
2020/12/21 10:26:40;;;;;;;7.15;2.75;;;20.80;99.90;;;;;;4349386;27;20174;-85
2020/12/21 10:29:08;;;;;;;4.10;3.78;;;20.90;99.90;;;;;;4314891;33;20581;-84
2020/12/21 10:31:36;;;;;;;2.50;1.65;;;20.90;99.90;;;;;;4316791;33;20087;-84
2020/12/21 10:34:04;;;;;;;10.93;9.95;;;21.20;99.90;;;;;;4335475;27;20429;-84
2020/12/21 10:36:32;;;;;;;3.40;1.40;;;21.40;99.90;;;;;;4309454;33;20099;-83
2020/12/21 10:39:00;;;;;;;3.40;1.20;;;20.90;99.90;;;;;;4349815;27;20264;-82
2020/12/21 10:41:34;;;;;;;0.98;0.80;;;21.10;99.90;;;;;;4324718;27;20191;-84
2020/12/21 10:44:02;;;;;;;3.17;1.27;;;21.30;99.90;;;;;;4313739;33;20135;-84
2020/12/21 10:46:50;;;;;;;3.53;1.60;;;21.30;99.90;;;;;;4323457;27;20123;-83
2020/12/21 10:49:19;;;;;;;8.95;8.10;;;21.30;99.90;;;;;;4332833;33;20099;-83
2020/12/21 10:51:47;;;;;;;3.90;3.60;;;21.60;99.90;;;;;;4355289;32;20099;-84
2020/12/21 10:54:15;;;;;;;7.03;6.53;;;22.00;99.90;;;;;;4356396;27;20052;-83
2020/12/21 10:56:43;;;;;;;4.05;1.95;;;22.40;99.90;;;;;;4330783;33;20512;-84
2020/12/21 10:59:11;;;;;;;5.95;5.45;;;22.30;99.90;;;;;;4333596;27;20156;-84
2020/12/21 11:01:45;;;;;;;4.35;2.67;;;24.10;95.80;;;;;;4339780;27;20056;-85
2020/12/21 11:04:14;;;;;;;2.33;2.12;;;24.50;93.30;;;;;;4309147;33;20099;-85
2020/12/21 11:06:42;;;;;;;2.28;2.08;;;23.90;93.90;;;;;;4350592;27;20083;-84
2020/12/21 11:09:10;;;;;;;4.03;2.62;;;24.50;93.00;;;;;;4310582;33;20141;-83
2020/12/21 11:11:38;;;;;;;4.30;1.30;;;24.10;92.00;;;;;;4314577;33;20611;-84
2020/12/21 11:14:08;;;;;;;2.85;1.10;;;22.40;95.50;;;;;;4369459;27;20451;-83
2020/12/21 11:16:35;;;;;;;6.07;1.52;;;21.40;97.80;;;;;;4350996;33;20560;-83
2020/12/21 11:19:04;;;;;;;1.10;1.00;;;21.20;98.80;;;;;;4356846;27;20195;-83
2020/12/21 11:21:37;;;;;;;5.87;1.30;;;21.10;99.40;;;;;;4306272;33;20483;-84
2020/12/21 11:24:06;;;;;;;2.33;1.05;;;21.60;99.00;;;;;;4320889;33;20111;-83
2020/12/21 11:26:34;;;;;;;5.10;1.23;;;21.00;99.50;;;;;;4337341;27;20095;-84
2020/12/21 11:29:04;;;;;;;3.92;1.50;;;21.00;99.90;;;;;;4318230;33;20108;-84
2020/12/21 11:31:36;;;;;;;3.78;1.37;;;21.00;99.90;;;;;;4318913;33;20108;-84
2020/12/21 11:34:04;;;;;;;3.62;1.20;;;21.00;99.90;;;;;;4333233;27;20423;-83
2020/12/21 11:36:32;;;;;;;1.95;1.20;;;21.10;98.90;;;;;;4321491;33;20214;-83
2020/12/21 11:39:01;;;;;;;2.65;1.45;;;20.90;98.40;;;;;;4331813;27;20182;-84
2020/12/21 11:41:32;;;;;;;3.85;1.55;;;21.20;98.70;;;;;;4293297;33;20088;-83
2020/12/21 11:44:00;;;;;;;2.60;1.30;;;21.30;98.30;;;;;;4319744;33;20068;-84
2020/12/21 11:46:31;;;;;;;3.37;1.60;;;21.40;97.80;;;;;;4335256;27;20417;-84
2020/12/21 11:48:59;;;;;;;3.53;1.20;;;21.10;97.90;;;;;;4321618;33;20672;-83
2020/12/21 11:51:27;;;;;;;2.62;1.52;;;21.30;98.20;;;;;;4330476;33;20056;-83
2020/12/21 11:53:55;;;;;;;2.92;1.55;;;21.50;96.90;;;;;;4337631;27;20075;-84
2020/12/21 11:56:23;;;;;;;3.12;1.05;;;21.20;97.20;;;;;;4317309;33;20080;-83
2020/12/21 11:58:52;;;;;;;4.55;1.42;;;21.40;97.70;;;;;;4335135;27;20377;31
2020/12/21 12:01:19;;;;;;;3.72;1.50;;;21.10;97.60;;;;;;4335242;33;20060;-83
2020/12/21 12:03:48;;;;;;;3.30;1.52;;;21.30;97.80;;;;;;4326458;33;20131;-84
2020/12/21 12:06:22;;;;;;;5.28;1.17;;;21.90;96.20;;;;;;4360022;27;20078;-84
2020/12/21 12:08:53;;;;;;;3.17;1.30;;;21.70;96.80;;;;;;4317909;33;20374;-83
2020/12/21 12:11:23;;;;;;;7.40;1.73;;;21.60;96.80;;;;;;4322701;33;20491;-84
2020/12/21 12:13:51;;;;;;;5.80;1.92;;;21.50;98.00;;;;;;4344314;27;20159;-85
2020/12/21 12:16:24;;;;;;;1.60;1.20;;;21.30;97.40;;;;;;4324742;33;20534;-84
2020/12/21 12:18:54;;;;;;;4.10;1.60;;;21.20;97.40;;;;;;4338289;27;20091;-84
2020/12/21 12:21:24;;;;;;;4.93;1.95;;;21.10;97.60;;;;;;4335757;27;20079;-83
2020/12/21 12:23:52;;;;;;;6.05;2.35;;;21.30;97.30;;;;;;4313286;33;20125;-84
2020/12/21 12:26:20;;;;;;;4.37;1.87;;;22.50;96.20;;;;;;4315061;33;20088;-84
2020/12/21 12:28:48;;;;;;;6.53;2.03;;;22.60;95.20;;;;;;4343656;27;20054;-83
2020/12/21 12:31:18;;;;;;;4.25;1.00;;;24.40;91.70;;;;;;4298138;33;20403;-83
2020/12/21 12:33:47;;;;;;;4.62;1.20;;;24.60;91.30;;;;;;4304378;33;20064;-84
2020/12/21 12:36:28;;;;;;;2.75;1.20;;;22.60;93.60;;;;;;4322706;27;20060;-84
2020/12/21 12:38:56;;;;;;;2.15;1.30;;;21.80;95.00;;;;;;4319873;27;20444;-84
2020/12/21 12:41:24;;;;;;;2.00;1.30;;;21.30;96.40;;;;;;4334751;27;20106;-84
2020/12/21 12:43:52;;;;;;;4.07;1.37;;;21.10;97.10;;;;;;4313671;33;20391;-83
2020/12/21 12:46:20;;;;;;;2.50;1.37;;;20.90;97.70;;;;;;4332517;33;20463;-83
2020/12/21 12:48:48;;;;;;;5.05;1.52;;;20.90;97.50;;;;;;4335805;27;20129;-84
2020/12/21 12:51:16;;;;;;;3.87;1.30;;;20.80;97.70;;;;;;4318971;33;20102;-84
2020/12/21 12:53:45;;;;;;;4.53;1.70;;;20.80;97.30;;;;;;4329047;27;20100;-84
2020/12/21 12:56:13;;;;;;;6.10;1.87;;;20.80;97.30;;;;;;4305426;33;20218;-83
2020/12/21 12:58:41;;;;;;;4.60;1.65;;;20.70;97.20;;;;;;4327009;27;20156;-84
2020/12/21 13:01:09;;;;;;;2.03;1.60;;;20.80;97.20;;;;;;4330094;27;20056;-83
2020/12/21 13:03:37;;;;;;;2.83;1.55;;;21.10;97.00;;;;;;4319169;33;20408;-84
2020/12/21 13:06:06;;;;;;;4.75;1.87;;;21.40;96.40;;;;;;4329142;33;20518;-83
2020/12/21 13:08:36;;;;;;;3.03;1.95;;;21.70;96.30;;;;;;4322474;33;20091;-83
2020/12/21 13:11:20;;;;;;;8.27;5.90;;;22.10;95.80;;;;;;4318465;33;20118;-83
2020/12/21 13:13:48;;;;;;;7.18;3.62;;;21.90;95.50;;;;;;4322520;33;20087;-83
2020/12/21 13:16:16;;;;;;;3.25;2.50;;;21.60;95.60;;;;;;4330160;27;20112;-83
2020/12/21 13:18:44;;;;;;;3.45;1.30;;;21.80;95.60;;;;;;4319446;27;20068;-84
2020/12/21 13:21:21;;;;;;;8.23;4.10;;;21.90;95.90;;;;;;4330370;27;20228;-83
2020/12/21 13:23:49;;;;;;;3.10;1.80;;;22.30;95.10;;;;;;4334075;27;20215;-83
2020/12/21 13:26:18;;;;;;;2.97;2.00;;;22.30;93.80;;;;;;4335369;33;20052;-83
2020/12/21 13:28:47;;;;;;;6.68;2.33;;;22.70;94.10;;;;;;4351022;27;20052;-84
2020/12/21 13:31:15;;;;;;;5.30;2.20;;;22.60;93.70;;;;;;4413765;27;20090;-84
2020/12/21 13:33:47;;;;;;;5.25;3.10;;;22.40;94.00;;;;;;4327050;27;20150;-84
2020/12/21 13:36:18;;;;;;;1.97;1.20;;;22.40;93.80;;;;;;4395038;27;20244;-84
2020/12/21 13:38:49;;;;;;;3.78;1.27;;;22.00;93.80;;;;;;4374392;27;20289;-92
2020/12/21 13:41:23;;;;;;;4.82;1.60;;;22.10;93.10;;;;;;4269482;33;20079;-92
2020/12/21 13:43:51;;;;;;;2.97;1.37;;;22.50;93.50;;;;;;4288531;33;20076;-92
2020/12/21 13:46:19;;;;;;;3.10;1.20;;;22.40;93.70;;;;;;4297545;33;20111;-92
2020/12/21 13:48:53;;;;;;;3.17;1.25;;;22.30;93.90;;;;;;4314967;33;20118;-94
2020/12/21 13:51:26;;;;;;;3.28;1.23;;;22.30;93.50;;;;;;4310942;33;20136;-93
2020/12/21 13:53:54;;;;;;;2.25;1.20;;;22.40;94.50;;;;;;4286494;33;20087;-93
2020/12/21 13:56:22;;;;;;;5.37;1.65;;;22.30;94.40;;;;;;4279668;33;20118;-92
2020/12/21 13:58:56;;;;;;;5.18;1.62;;;22.20;93.90;;;;;;4287547;33;20260;-93
2020/12/21 14:01:27;;;;;;;3.35;1.75;;;22.40;95.00;;;;;;4305457;33;20079;-93
2020/12/21 14:03:58;;;;;;;4.28;1.95;;;22.10;95.60;;;;;;4288818;33;20125;-93
2020/12/21 14:06:32;;;;;;;4.28;2.03;;;21.90;96.20;;;;;;4311392;33;20075;-94
2020/12/21 14:09:07;;;;;;;4.85;2.10;;;21.80;96.40;;;;;;4308178;33;20122;-93
2020/12/21 14:11:34;;;;;;;5.18;1.75;;;21.90;96.50;;;;;;4318270;33;20431;-92
2020/12/21 14:14:05;;;;;;;4.03;1.95;;;21.80;96.30;;;;;;4295879;33;20076;-92
2020/12/21 14:16:36;;;;;;;4.68;1.80;;;21.90;96.50;;;;;;4301381;33;20056;-92
2020/12/21 14:19:07;;;;;;;5.28;2.40;;;22.00;96.30;;;;;;4334518;33;20044;-93
2020/12/21 14:21:38;;;;;;;4.82;2.20;;;21.90;96.30;;;;;;4330832;33;20092;-93
2020/12/21 14:24:13;;;;;;;6.60;1.90;;;21.70;96.70;;;;;;4304277;33;20136;-93
2020/12/21 14:26:48;;;;;;;5.70;1.92;;;21.60;96.30;;;;;;4318262;33;20059;-92
2020/12/21 14:29:22;;;;;;;6.18;2.00;;;21.70;96.50;;;;;;4321095;33;20076;-93
2020/12/21 14:31:50;;;;;;;5.97;1.27;;;21.80;96.80;;;;;;4312469;33;20059;-95
2020/12/21 14:34:23;;;;;;;2.25;1.60;;;21.80;96.70;;;;;;4321738;32;20127;-92
2020/12/21 14:36:51;;;;;;;5.35;1.70;;;21.60;96.50;;;;;;4322292;32;20083;-94
2020/12/21 14:39:19;;;;;;;3.70;1.67;;;21.70;96.60;;;;;;4321890;32;20119;-93